createdAt,value
2022-12-31T07:20:03.031Z,25.25
2022-12-31T07:22:34.603Z,23.27
2022-12-31T07:25:07.071Z,25.42
2022-12-31T07:27:51.307Z,25.58
2022-12-31T07:30:23.356Z,27.60
2022-12-31T07:33:19.045Z,27.58
2022-12-31T07:35:58.030Z,26.35
2022-12-31T07:38:33.177Z,27.05
2022-12-31T07:41:13.660Z,30.08
2022-12-31T07:43:54.311Z,27.67
2022-12-31T07:46:30.048Z,28.80
2022-12-31T07:48:59.819Z,27.80
2022-12-31T07:51:29.807Z,30.15
2022-12-31T07:54:00.253Z,30.40
2022-12-31T07:56:30.653Z,31.20
2022-12-31T07:59:07.374Z,32.80
2022-12-31T08:01:44.801Z,32.53
2022-12-31T08:04:24.727Z,34.33
2022-12-31T08:07:03.871Z,32.80
2022-12-31T08:09:44.218Z,33.50
2022-12-31T08:12:14.247Z,35.47
2022-12-31T08:14:47.708Z,32.85
2022-12-31T08:17:19.039Z,32.88
2022-12-31T08:19:48.925Z,32.92
2022-12-31T08:22:47.827Z,32.33
2022-12-31T08:25:27.319Z,33.22
2022-12-31T08:28:06.126Z,30.73
2022-12-31T08:30:43.251Z,29.45
2022-12-31T08:33:19.753Z,30.13
2022-12-31T08:36:03.350Z,28.48
2022-12-31T08:38:40.885Z,29.35
2022-12-31T08:41:19.391Z,29.33
2022-12-31T08:43:57.596Z,27.85
2022-12-31T08:46:32.730Z,26.65
2022-12-31T08:49:03.153Z,26.25
2022-12-31T08:51:34.113Z,26.38
2022-12-31T08:54:05.127Z,25.85
2022-12-31T08:56:44.771Z,27.55
2022-12-31T08:59:36.365Z,26.52
2022-12-31T09:02:24.558Z,27.08
2022-12-31T09:05:06.091Z,26.77
2022-12-31T09:07:38.843Z,29.08
2022-12-31T09:10:19.417Z,27.63
2022-12-31T09:13:00.365Z,29.23
2022-12-31T09:15:35.318Z,27.98
2022-12-31T09:18:05.275Z,27.80
2022-12-31T09:20:44.895Z,26.63
2022-12-31T09:23:15.020Z,29.65
2022-12-31T09:25:53.374Z,28.88
2022-12-31T09:28:39.529Z,27.73
2022-12-31T09:31:15.148Z,30.25
2022-12-31T09:33:51.365Z,28.27
2022-12-31T09:36:25.629Z,27.77
2022-12-31T09:39:04.096Z,28.45
2022-12-31T09:42:12.437Z,28.38
2022-12-31T09:45:18.610Z,27.20
2022-12-31T09:48:14.464Z,28.10
2022-12-31T09:50:58.740Z,28.52
2022-12-31T09:53:57.676Z,29.37
2022-12-31T09:56:34.281Z,30.63
2022-12-31T09:59:11.829Z,31.95
2022-12-31T10:01:51.775Z,28.75
2022-12-31T10:04:40.911Z,29.92
2022-12-31T10:07:23.517Z,29.45
2022-12-31T10:10:04.499Z,30.33
2022-12-31T10:13:01.984Z,30.08
2022-12-31T10:15:45.522Z,32.15
2022-12-31T10:18:35.587Z,29.75
2022-12-31T10:21:20.795Z,31.55
2022-12-31T10:24:10.211Z,30.95
2022-12-31T10:26:56.942Z,29.50
2022-12-31T10:29:38.249Z,29.85
2022-12-31T10:32:19.557Z,29.80
2022-12-31T10:35:01.882Z,27.70
2022-12-31T10:37:39.319Z,28.02
2022-12-31T10:40:21.359Z,28.73
2022-12-31T10:43:32.507Z,25.75
2022-12-31T10:46:39.422Z,27.90
2022-12-31T10:50:00.452Z,28.23
2022-12-31T10:56:09.753Z,26.42
2022-12-31T10:59:13.612Z,26.08
2022-12-31T11:01:50.057Z,23.23
2022-12-31T11:04:55.087Z,25.00
2022-12-31T11:08:04.429Z,24.63
2022-12-31T11:11:03.225Z,24.77
2022-12-31T11:14:09.053Z,24.27
2022-12-31T11:17:02.903Z,23.67
2022-12-31T11:19:41.492Z,22.73
2022-12-31T11:22:29.607Z,25.30
2022-12-31T11:25:18.081Z,23.10
2022-12-31T11:28:14.902Z,23.35
2022-12-31T11:30:59.462Z,24.05
2022-12-31T11:33:45.453Z,24.08
2022-12-31T11:36:29.833Z,23.75
2022-12-31T11:39:31.059Z,23.25
2022-12-31T11:42:06.171Z,21.58
2022-12-31T11:44:46.611Z,22.75
2022-12-31T11:47:44.658Z,22.27
2022-12-31T11:50:33.307Z,21.75
2022-12-31T11:53:17.826Z,22.88
2022-12-31T11:55:58.776Z,20.52
2022-12-31T11:58:28.904Z,23.27
2022-12-31T12:01:06.050Z,21.25
2022-12-31T12:03:39.763Z,20.35
2022-12-31T12:08:42.437Z,21.38
2022-12-31T12:11:20.145Z,20.92
2022-12-31T12:13:49.891Z,20.02
2022-12-31T12:16:22.597Z,19.65
2022-12-31T12:19:04.155Z,18.53
2022-12-31T12:21:33.767Z,19.83
2022-12-31T12:24:05.428Z,20.85
2022-12-31T12:26:37.282Z,19.63
2022-12-31T12:29:16.846Z,19.63
2022-12-31T12:31:58.103Z,19.08
2022-12-31T12:34:29.643Z,18.23
2022-12-31T12:36:58.929Z,18.50
2022-12-31T12:39:31.152Z,18.13
2022-12-31T12:42:08.707Z,16.77
2022-12-31T12:44:38.904Z,17.88
2022-12-31T12:47:15.970Z,18.17
2022-12-31T12:49:48.178Z,19.40
2022-12-31T12:52:37.854Z,18.05
2022-12-31T12:55:18.496Z,17.02
2022-12-31T12:57:55.620Z,17.80
2022-12-31T13:00:29.815Z,16.17
2022-12-31T13:03:31.439Z,16.25
2022-12-31T13:06:17.941Z,17.15
2022-12-31T13:09:14.285Z,15.90
2022-12-31T13:11:52.961Z,16.80
2022-12-31T13:14:32.577Z,16.45
2022-12-31T13:17:14.958Z,16.08
2022-12-31T13:19:51.954Z,16.48
2022-12-31T13:22:28.746Z,16.73
2022-12-31T13:25:04.890Z,16.75
2022-12-31T13:27:38.544Z,17.98
2022-12-31T13:32:48.530Z,15.82
2022-12-31T13:35:26.490Z,16.55
2022-12-31T13:38:05.566Z,17.02
2022-12-31T13:40:46.273Z,17.02
2022-12-31T13:43:20.730Z,16.30
2022-12-31T13:46:00.489Z,18.25
2022-12-31T13:48:36.155Z,18.75
2022-12-31T13:51:13.568Z,18.33
2022-12-31T13:53:50.538Z,18.20
2022-12-31T13:56:25.878Z,18.77
2022-12-31T13:59:01.573Z,19.10
2022-12-31T14:01:36.668Z,18.95
2022-12-31T14:04:11.305Z,18.88
2022-12-31T14:06:50.808Z,19.08
2022-12-31T14:09:24.951Z,17.80
2022-12-31T14:12:14.426Z,22.13
2022-12-31T14:14:50.763Z,19.75
2022-12-31T14:17:27.466Z,20.35
2022-12-31T14:20:12.612Z,17.50
2022-12-31T14:22:51.226Z,22.02
2022-12-31T14:25:28.029Z,19.90
2022-12-31T14:28:01.323Z,18.73
2022-12-31T14:30:35.827Z,19.75
2022-12-31T14:33:26.481Z,21.50
2022-12-31T14:36:17.385Z,19.95
2022-12-31T14:39:01.921Z,21.70
2022-12-31T14:41:46.084Z,22.27
2022-12-31T14:44:32.794Z,21.55
2022-12-31T14:47:16.486Z,19.80
2022-12-31T14:49:59.278Z,19.83
2022-12-31T14:52:33.154Z,19.45
2022-12-31T14:55:23.043Z,20.30
2022-12-31T14:58:26.410Z,19.33
2022-12-31T15:00:54.075Z,18.83
2022-12-31T15:03:37.889Z,20.25
2022-12-31T15:06:29.480Z,19.17
2022-12-31T15:09:08.616Z,17.67
2022-12-31T15:11:51.453Z,19.20
2022-12-31T15:14:48.714Z,19.55
2022-12-31T15:17:33.468Z,20.73
2022-12-31T15:20:32.460Z,18.77
2022-12-31T15:23:02.186Z,19.88
2022-12-31T15:25:40.011Z,20.65
2022-12-31T15:28:37.618Z,20.88
2022-12-31T15:31:18.935Z,18.38
2022-12-31T15:33:58.984Z,18.98
2022-12-31T15:36:31.577Z,19.80
2022-12-31T15:39:27.919Z,18.65
2022-12-31T15:44:51.882Z,18.45
2022-12-31T15:49:59.524Z,18.92
2022-12-31T15:52:35.785Z,18.17
2022-12-31T15:55:07.727Z,19.00
2022-12-31T15:57:41.075Z,18.73
2022-12-31T16:00:18.666Z,16.58
2022-12-31T16:02:51.948Z,18.70
2022-12-31T16:05:23.434Z,17.17
2022-12-31T16:07:55.167Z,17.02
2022-12-31T16:10:27.086Z,16.77
2022-12-31T16:12:57.626Z,16.55
2022-12-31T16:15:31.393Z,17.60
2022-12-31T16:18:05.574Z,17.40
2022-12-31T16:20:41.773Z,17.20
2022-12-31T16:23:22.251Z,16.75
2022-12-31T16:25:54.328Z,18.10
2022-12-31T16:28:27.473Z,16.48
2022-12-31T16:31:02.791Z,16.50
2022-12-31T16:33:32.996Z,16.00
2022-12-31T16:36:03.478Z,16.77
2022-12-31T16:38:34.391Z,16.48
2022-12-31T16:41:19.700Z,16.92
2022-12-31T16:43:50.212Z,17.80
2022-12-31T16:46:26.310Z,17.70
2022-12-31T16:48:58.506Z,15.55
2022-12-31T16:51:31.892Z,16.48
2022-12-31T16:54:03.628Z,16.77
2022-12-31T16:56:35.307Z,16.40
2022-12-31T16:59:08.064Z,16.58
2022-12-31T17:01:39.735Z,17.45
2022-12-31T17:04:13.452Z,16.50
2022-12-31T17:09:15.706Z,16.75
2022-12-31T17:11:50.567Z,17.17
2022-12-31T17:14:23.162Z,16.35
2022-12-31T17:17:03.592Z,15.38
2022-12-31T17:19:41.050Z,16.98
2022-12-31T17:22:17.539Z,16.13
2022-12-31T17:24:49.853Z,15.55
2022-12-31T17:27:19.951Z,17.88
2022-12-31T17:29:49.435Z,17.67
2022-12-31T17:32:36.795Z,17.23
2022-12-31T17:35:28.799Z,15.73
2022-12-31T17:38:28.982Z,16.98
2022-12-31T17:41:15.077Z,15.40
2022-12-31T17:43:44.649Z,16.75
2022-12-31T17:46:17.822Z,16.27
2022-12-31T17:48:52.593Z,15.80
2022-12-31T17:51:24.133Z,16.70
2022-12-31T17:53:54.240Z,16.38
2022-12-31T17:56:23.917Z,15.32
2022-12-31T17:58:54.683Z,16.58
2022-12-31T18:01:25.149Z,15.75
2022-12-31T18:03:56.968Z,22.88
2022-12-31T18:06:26.860Z,17.05
2022-12-31T18:08:56.101Z,15.93
2022-12-31T18:11:25.657Z,15.10
2022-12-31T18:13:55.630Z,17.67
2022-12-31T18:16:25.503Z,14.82
2022-12-31T18:18:58.736Z,15.43
2022-12-31T18:21:30.643Z,14.63
2022-12-31T18:26:30.596Z,14.50
2022-12-31T18:29:02.896Z,14.43
2022-12-31T18:31:32.401Z,13.80
2022-12-31T18:34:03.098Z,13.45
2022-12-31T18:36:32.411Z,13.85
2022-12-31T18:39:04.776Z,14.65
2022-12-31T18:41:40.180Z,13.68
2022-12-31T18:44:12.608Z,14.15
2022-12-31T18:46:41.929Z,13.63
2022-12-31T18:49:12.497Z,14.15
2022-12-31T18:51:41.608Z,13.38
2022-12-31T18:54:12.187Z,13.98
2022-12-31T18:56:47.075Z,13.65
2022-12-31T18:59:17.599Z,12.98
2022-12-31T19:01:47.086Z,12.90
2022-12-31T19:04:24.986Z,12.52
2022-12-31T19:06:57.108Z,13.90
2022-12-31T19:12:16.188Z,12.73
2022-12-31T19:14:45.626Z,12.35
2022-12-31T19:17:14.881Z,13.43
2022-12-31T19:19:45.775Z,13.07
2022-12-31T19:22:16.797Z,11.20
2022-12-31T19:24:46.486Z,12.55
2022-12-31T19:27:15.722Z,12.63
2022-12-31T19:29:45.042Z,12.15
2022-12-31T19:32:14.390Z,12.07
2022-12-31T19:34:44.998Z,12.63
2022-12-31T19:37:16.131Z,11.13
2022-12-31T19:39:45.774Z,11.48
2022-12-31T19:42:17.354Z,11.23
2022-12-31T19:44:46.723Z,11.05
2022-12-31T19:47:15.948Z,11.60
2022-12-31T19:49:46.642Z,11.40
2022-12-31T19:52:15.861Z,12.25
2022-12-31T19:54:45.139Z,12.02
2022-12-31T19:57:14.247Z,11.57
2022-12-31T19:59:43.729Z,11.85
2022-12-31T20:02:13.167Z,11.50
2022-12-31T20:04:43.469Z,12.07
2022-12-31T20:07:14.143Z,11.88
2022-12-31T20:09:43.406Z,12.77
2022-12-31T20:12:12.932Z,12.73
2022-12-31T20:14:42.062Z,10.98
2022-12-31T20:17:11.391Z,12.27
2022-12-31T20:19:40.456Z,11.00
2022-12-31T20:22:10.151Z,11.57
2022-12-31T20:24:40.854Z,11.40
2022-12-31T20:27:16.519Z,11.88
2022-12-31T20:29:47.424Z,10.48
2022-12-31T20:32:17.057Z,11.73
2022-12-31T20:34:46.450Z,10.45
2022-12-31T20:37:16.465Z,11.60
2022-12-31T20:39:46.873Z,12.05
2022-12-31T20:42:15.874Z,11.52
2022-12-31T20:44:45.031Z,10.55
2022-12-31T20:47:13.997Z,11.25
2022-12-31T20:50:10.469Z,10.15
2022-12-31T20:52:33.258Z,11.02
2022-12-31T20:55:03.692Z,11.32
2022-12-31T20:57:33.888Z,11.68
2022-12-31T21:00:03.793Z,11.60
2022-12-31T21:02:42.125Z,12.00
2022-12-31T21:05:12.324Z,11.57
2022-12-31T21:07:41.796Z,11.55
2022-12-31T21:10:12.546Z,11.48
2022-12-31T21:12:43.713Z,12.65
2022-12-31T21:15:13.647Z,12.32
2022-12-31T21:17:42.756Z,11.15
2022-12-31T21:20:12.681Z,11.35
2022-12-31T21:22:41.706Z,11.98
2022-12-31T21:25:13.426Z,12.55
2022-12-31T21:27:42.825Z,12.43
2022-12-31T21:30:20.569Z,15.15
2022-12-31T21:32:50.122Z,11.80
2022-12-31T21:38:09.212Z,12.48
2022-12-31T21:40:39.686Z,12.68
2022-12-31T21:43:09.062Z,13.20
2022-12-31T21:45:38.735Z,12.48
2022-12-31T21:48:25.106Z,12.77
2022-12-31T21:50:56.767Z,12.50
2022-12-31T21:53:34.144Z,11.93
2022-12-31T21:56:11.493Z,11.75
2022-12-31T21:58:43.078Z,12.45
2022-12-31T22:01:35.413Z,12.40
2022-12-31T22:04:04.846Z,12.43
2022-12-31T22:06:37.148Z,12.27
2022-12-31T22:09:06.253Z,11.65
2022-12-31T22:11:36.648Z,12.30
2022-12-31T22:14:05.938Z,13.63
2022-12-31T22:16:35.296Z,11.75
2022-12-31T22:19:04.729Z,13.50
2022-12-31T22:21:34.183Z,13.38
2022-12-31T22:24:03.679Z,13.30
2022-12-31T22:26:33.477Z,12.57
2022-12-31T22:29:03.813Z,12.32
2022-12-31T22:31:32.805Z,12.75
2022-12-31T22:34:02.120Z,12.35
2022-12-31T22:36:31.261Z,12.68
2022-12-31T22:39:00.688Z,13.10
2022-12-31T22:41:30.117Z,13.10
2022-12-31T22:44:04.089Z,13.95
2022-12-31T22:46:36.383Z,13.20
2022-12-31T22:49:05.985Z,12.13
2022-12-31T22:51:54.690Z,13.60
2022-12-31T22:54:24.939Z,13.95
2022-12-31T22:56:54.073Z,13.93
2022-12-31T22:59:24.103Z,13.73
2022-12-31T23:01:54.532Z,14.02
2022-12-31T23:04:23.656Z,14.68
2022-12-31T23:06:53.063Z,16.20
2022-12-31T23:09:40.457Z,13.90
2022-12-31T23:12:10.830Z,13.20
2022-12-31T23:14:57.537Z,13.13
2022-12-31T23:17:46.270Z,15.30
2022-12-31T23:20:35.053Z,14.40
2022-12-31T23:23:10.868Z,14.18
2022-12-31T23:25:42.431Z,14.23
2022-12-31T23:28:13.479Z,13.25
2022-12-31T23:30:43.639Z,14.27
2022-12-31T23:33:17.837Z,13.25
2022-12-31T23:35:47.382Z,12.82
2022-12-31T23:38:18.894Z,13.93
2022-12-31T23:40:48.159Z,14.52
2022-12-31T23:43:21.918Z,13.10
2022-12-31T23:45:51.698Z,14.02
2022-12-31T23:48:22.316Z,14.77
2022-12-31T23:50:54.153Z,14.18
2022-12-31T23:53:23.885Z,14.45
2022-12-31T23:55:53.806Z,13.40
2022-12-31T23:58:23.390Z,15.38
